ADDS METAR Data INFO
IDs: Format: Raw Decoded Include TAF

Data at: 2148 UTC 15 Dec 2017

KRMN 152135Z AUTO 00000KT 10SM OVC025 M01/M04 A2998 RMK AO2 T10111036
KRMN 152115Z AUTO 00000KT 10SM OVC027 M01/M03 A2997 RMK AO2 T10111035
KRMN 152055Z AUTO 00000KT 10SM OVC027 M01/M03 A2998 RMK AO2 T10111033
KRMN 152035Z AUTO 32003KT 10SM OVC027 M01/M03 A2998 RMK AO2 T10121032
KRMN 152015Z AUTO 34004KT 10SM OVC027 M01/M03 A2999 RMK AO2 T10141027
KRMN 151955Z AUTO 33006KT 5SM -SN OVC029 M01/M04 A2998 RMK AO2 T10151036
KRMN 151935Z AUTO 33004KT 5SM -SN OVC027 M01/M04 A2998 RMK AO2 T10131042
KRMN 151915Z AUTO 34006KT 7SM -SN OVC027 M01/M05 A2998 RMK AO2 T10111050
KRMN 151855Z AUTO 33005KT 7SM -SN OVC027 M01/M06 A2998 RMK AO2 T10061060
KRMN 151835Z AUTO 33004KT 10SM -SN OVC027 M01/M06 A2997 RMK AO2 T10071060
KRMN 151815Z AUTO 33005KT 10SM -SN OVC027 00/M07 A2999 RMK AO2 T10051070
KRMN 151755Z AUTO 36004KT 10SM OVC029 00/M08 A3000 RMK AO2 T10051078 11001 21010
KRMN 151735Z AUTO 33005KT 10SM OVC029 00/M08 A3001 RMK AO2 T10031080
KRMN 151715Z AUTO 34005KT 10SM OVC031 00/M08 A3002 RMK AO2 T10021083
KRMN 151655Z AUTO 36003KT 10SM OVC033 00/M08 A3003 RMK AO2 T10031082
KRMN 151635Z AUTO 35005KT 10SM OVC033 00/M08 A3005 RMK AO2 T10021081
KRMN 151615Z AUTO 07003KT 10SM OVC035 00/M08 A3005 RMK AO2 T10021080
KRMN 151555Z AUTO 04003KT 10SM OVC035 00/M08 A3007 RMK AO2 T10031081
KRMN 151535Z AUTO 05004KT 10SM OVC035 00/M08 A3009 RMK AO2 T10031081
KRMN 151515Z AUTO 08003KT 10SM OVC035 00/M08 A3010 RMK AO2 T10011076
KRMN 151455Z AUTO 04004KT 10SM OVC035 00/M08 A3011 RMK AO2 T10031078
KRMN 151435Z AUTO 00000KT 10SM OVC035 00/M08 A3012 RMK AO2 T10031079
KRMN 151415Z AUTO 07004KT 10SM OVC037 00/M08 A3011 RMK AO2 T10031076
KRMN 151355Z AUTO 05004KT 10SM OVC037 00/M08 A3011 RMK AO2 T10051076
KRMN 151335Z AUTO 07005KT 10SM BKN039 OVC060 00/M08 A3011 RMK AO2 T10051076
KRMN 151315Z AUTO 07004KT 10SM SCT039 BKN060 OVC080 M01/M08 A3012 RMK AO2 T10061078
KRMN 151255Z AUTO 06004KT 10SM SCT060 OVC080 M01/M08 A3012 RMK AO2 T10081079
KRMN 151235Z AUTO 08004KT 10SM SCT050 OVC080 M01/M08 A3012 RMK AO2 T10101082
KRMN 151215Z AUTO 06005KT 10SM SCT050 OVC080 M01/M08 A3013 RMK AO2 T10081085
KRMN 151155Z AUTO 07005KT 10SM SCT050 SCT060 OVC080 M01/M09 A3013 RMK AO2 7//// T10091088 11006 21021
KRMN 151135Z AUTO 06004KT 10SM BKN050 BKN060 OVC080 M01/M09 A3013 RMK AO2 T10081089
KRMN 151115Z AUTO 04004KT 10SM OVC050 M01/M09 A3014 RMK AO2 T10071089
KRMN 151055Z AUTO 00000KT 10SM OVC050 M01/M09 A3014 RMK AO2 T10071086
KRMN 151035Z AUTO 00000KT 10SM OVC055 M01/M08 A3014 RMK AO2 T10081082
KRMN 151015Z AUTO 00000KT 10SM OVC055 M01/M06 A3014 RMK AO2 T10151060
KRMN 150955Z AUTO 00000KT 10SM BKN055 OVC085 M01/M08 A3014 RMK AO2 T10101078
KRMN 150935Z AUTO 00000KT 10SM BKN055 BKN070 OVC085 M01/M08 A3014 RMK AO2 T10101082
KRMN 150915Z AUTO 00000KT 10SM SCT055 SCT070 OVC085 M01/M08 A3014 RMK AO2 T10131081
KRMN 150855Z AUTO 00000KT 10SM OVC085 M02/M07 A3015 RMK AO2 T10191071
KRMN 150835Z AUTO 00000KT 10SM BKN085 M01/M08 A3016 RMK AO2 T10141077
KRMN 150815Z AUTO 00000KT 10SM BKN075 OVC085 M01/M08 A3017 RMK AO2 T10111083
KRMN 150755Z AUTO 00000KT 10SM BKN080 M01/M09 A3017 RMK AO2 T10101086
KRMN 150735Z AUTO 00000KT 10SM CLR M01/M09 A3016 RMK AO2 T10111086
KRMN 150715Z AUTO 00000KT 10SM CLR M01/M08 A3015 RMK AO2 T10151076
KRMN 150655Z AUTO 00000KT 10SM CLR M02/M06 A3016 RMK AO2 T10181065
KRMN 150635Z AUTO 00000KT 10SM CLR M02/M07 A3015 RMK AO2 T10191072
KRMN 150615Z AUTO 00000KT 10SM CLR M02/M07 A3015 RMK AO2 T10201074
KRMN 150555Z AUTO 00000KT 10SM CLR M02/M08 A3015 RMK AO2 T10171079 10017 21020
KRMN 150535Z AUTO 00000KT 10SM CLR M01/M09 A3015 RMK AO2 T10091093
KRMN 150515Z AUTO 00000KT 10SM CLR M01/M09 A3017 RMK AO2 T10111086
KRMN 150455Z AUTO 00000KT 10SM CLR M01/M09 A3015 RMK AO2 T10071089
KRMN 150435Z AUTO 02003KT 10SM CLR M01/M09 A3015 RMK AO2 T10071087
KRMN 150415Z AUTO 00000KT 10SM CLR 00/M08 A3015 RMK AO2 T10051084
KRMN 150355Z AUTO 03005KT 10SM CLR 00/M08 A3014 RMK AO2 T10021083
KRMN 150335Z AUTO 00000KT 10SM CLR 00/M08 A3014 RMK AO2 T00001080
KRMN 150315Z AUTO 03005KT 10SM CLR 00/M08 A3014 RMK AO2 T00021078
KRMN 150255Z AUTO 03005KT 10SM CLR 00/M07 A3013 RMK AO2 T00011075
KRMN 150235Z AUTO 04003KT 10SM CLR 00/M08 A3013 RMK AO2 T00021076
KRMN 150215Z AUTO 05003KT 10SM CLR 00/M07 A3012 RMK AO2 T00011074
KRMN 150155Z AUTO 36003KT 10SM CLR 00/M07 A3012 RMK AO2 T00021072
KRMN 150135Z AUTO 34005KT 10SM CLR 01/M07 A3012 RMK AO2 T00051074
KRMN 150115Z AUTO 36004KT 10SM CLR 01/M07 A3010 RMK AO2 T00061072
KRMN 150055Z AUTO 35006KT 10SM CLR 01/M07 A3010 RMK AO2 T00051071
KRMN 150035Z AUTO 02005KT 10SM CLR 01/M07 A3009 RMK AO2 T00121072
KRMN 150015Z AUTO 01006KT 10SM CLR 02/M07 A3008 RMK AO2 T00161072
KRMN 142350Z AUTO 05006KT 10SM CLR 02/M07 A3008 RMK AO2 6//// T00151071
KRMN 142335Z AUTO 04006KT 10SM CLR 02/M07 A3008 RMK AO2 T00201072
KRMN 142315Z AUTO 03004KT 10SM CLR 03/M07 A3007 RMK AO2 T00251072
KRMN 142255Z AUTO 03004KT 10SM CLR 03/M07 A3006 RMK AO2 T00271075
KRMN 142235Z AUTO 35007KT 10SM SCT060 03/M08 A3003 RMK AO2 T00281077
KRMN 142215Z AUTO 35008KT 10SM SCT060 03/M08 A3002 RMK AO2 T00311078
KRMN 142155Z AUTO 36004KT 10SM CLR 04/M08 A3000 RMK AO2 T00361080
KRMN 142135Z AUTO 36004KT 10SM CLR 04/M08 A3000 RMK AO2 T00411083
KRMN 142115Z AUTO 35007KT 10SM CLR 05/M08 A2998 RMK AO2 T00481081
KRMN 142055Z AUTO 36008KT 10SM CLR 05/M08 A2998 RMK AO2 6//// T00501085
KRMN 142035Z AUTO 36008KT 10SM 07/M08 A2997 RMK AO2 T00661078
KRMN 141855Z AUTO 35013G17KT 10SM CLR 05/M08 A2992 RMK AO2 T00531079
KRMN 141835Z AUTO 35013G18KT 10SM CLR 05/M07 A2991 RMK AO2 T00541071
KRMN 141815Z AUTO 01014G17KT 10SM CLR 05/M07 A2992 RMK AO2 T00461071
KRMN 141755Z AUTO 34014G21KT 10SM CLR 04/M06 A2991 RMK AO2 T00421065 10073 20021
KRMN 141735Z AUTO 01010G17KT 10SM CLR 05/M06 A2991 RMK AO2 T00481056
KRMN 141715Z AUTO 35012G21KT 10SM CLR 06/M05 A2991 RMK AO2 T00571052
KRMN 141655Z AUTO 33015G18KT 10SM SCT060 06/M07 A2990 RMK AO2 T00631068
KRMN 141635Z AUTO 33018KT 10SM SCT060 SCT070 06/M06 A2988 RMK AO2 T00641060
KRMN 141615Z AUTO 01013G17KT 10SM OVC060 06/M06 A2989 RMK AO2 T00631057
KRMN 141555Z AUTO 31008G16KT 10SM SCT060 SCT070 06/M06 A2987 RMK AO2 T00551057
KRMN 141535Z AUTO 00000KT 10SM SCT060 05/M06 A2986 RMK AO2 T00541057
KRMN 141515Z AUTO 00000KT 10SM BKN060 04/M06 A2985 RMK AO2 T00401057
KRMN 141455Z AUTO 00000KT 10SM SCT060 04/M06 A2983 RMK AO2 T00371058
KRMN 141435Z AUTO 00000KT 10SM BKN060 OVC070 03/M06 A2981 RMK AO2 T00311059
KRMN 141415Z AUTO 00000KT 10SM BKN060 03/M06 A2979 RMK AO2 T00291063
KRMN 141355Z AUTO 00000KT 10SM BKN065 OVC070 03/M06 A2976 RMK AO2 T00281065
KRMN 141335Z AUTO 00000KT 10SM SCT075 OVC080 03/M07 A2975 RMK AO2 T00281071
KRMN 141315Z AUTO 00000KT 10SM SCT070 BKN085 02/M07 A2973 RMK AO2 T00221074
KRMN 141255Z AUTO 25003KT 10SM BKN070 OVC085 03/M07 A2971 RMK AO2 T00271071
KRMN 141235Z AUTO 27005KT 10SM OVC070 02/M07 A2970 RMK AO2 T00231074
KRMN 141215Z AUTO 30006KT 10SM SCT070 OVC075 03/M07 A2968 RMK AO2 T00281072
KRMN 141155Z AUTO 27007KT 10SM SCT070 BKN080 03/M07 A2966 RMK AO2 T00281075 10030 20008
KRMN 141135Z AUTO 25004KT 10SM BKN090 03/M07 A2963 RMK AO2 T00271075
KRMN 141115Z AUTO 23009KT 10SM OVC090 03/M08 A2961 RMK AO2 T00301076
KRMN 141055Z AUTO 23006KT 10SM SCT090 03/M07 A2959 RMK AO2 T00261075
KRMN 141035Z AUTO 22007KT 10SM CLR 02/M08 A2958 RMK AO2 T00201077
KRMN 141015Z AUTO 21008KT 10SM SCT080 02/M08 A2958 RMK AO2 T00161076
KRMN 140955Z AUTO 21008KT 10SM SCT080 01/M08 A2957 RMK AO2 T00131079